createdAt,value
2022-12-24T00:00:45.220Z,7.72
2022-12-24T00:03:30.844Z,7.45
2022-12-24T00:06:22.528Z,8.50
2022-12-24T00:09:08.050Z,8.38
2022-12-24T00:11:57.510Z,8.85
2022-12-24T00:14:43.014Z,8.88
2022-12-24T00:17:28.267Z,8.25
2022-12-24T00:20:13.934Z,7.85
2022-12-24T00:22:59.230Z,7.90
2022-12-24T00:25:45.562Z,7.35
2022-12-24T00:28:31.175Z,10.43
2022-12-24T00:31:19.181Z,8.23
2022-12-24T00:34:06.124Z,9.57
2022-12-24T00:36:52.313Z,8.13
2022-12-24T00:39:37.701Z,8.85
2022-12-24T00:42:23.242Z,8.98
2022-12-24T00:45:15.226Z,9.95
2022-12-24T00:48:00.707Z,9.25
2022-12-24T00:50:46.255Z,10.13
2022-12-24T00:53:32.076Z,8.60
2022-12-24T00:56:17.775Z,9.35
2022-12-24T00:59:03.584Z,7.78
2022-12-24T01:01:48.982Z,10.30
2022-12-24T01:04:52.847Z,8.40
2022-12-24T01:07:43.727Z,8.82
2022-12-24T01:10:29.925Z,8.15
2022-12-24T01:13:15.724Z,8.25
2022-12-24T01:16:01.812Z,9.00
2022-12-24T01:18:47.082Z,9.32
2022-12-24T01:21:32.627Z,9.10
2022-12-24T01:24:18.087Z,7.95
2022-12-24T01:27:03.640Z,10.43
2022-12-24T01:29:48.996Z,8.10
2022-12-24T01:32:34.755Z,8.95
2022-12-24T01:35:20.314Z,9.32
2022-12-24T01:38:05.755Z,8.30
2022-12-24T01:41:09.825Z,9.77
2022-12-24T01:43:55.488Z,8.10
2022-12-24T01:46:41.016Z,8.40
2022-12-24T01:49:26.783Z,8.35
2022-12-24T01:52:17.239Z,8.57
2022-12-24T01:55:10.651Z,7.53
2022-12-24T01:57:59.565Z,7.88
2022-12-24T02:00:45.284Z,8.05
2022-12-24T02:03:31.027Z,8.00
2022-12-24T02:06:17.819Z,7.90
2022-12-24T02:09:03.368Z,7.68
2022-12-24T02:11:49.705Z,8.07
2022-12-24T02:14:39.336Z,7.97
2022-12-24T02:17:54.933Z,8.10
2022-12-24T02:21:10.471Z,8.60
2022-12-24T02:23:55.764Z,6.85
2022-12-24T02:27:04.990Z,7.68
2022-12-24T02:30:16.904Z,7.43
2022-12-24T02:33:40.609Z,6.10
2022-12-24T02:36:42.590Z,6.85
2022-12-24T02:39:48.204Z,7.75
2022-12-24T02:42:41.286Z,6.88
2022-12-24T02:45:31.147Z,6.85
2022-12-24T02:48:18.240Z,7.63
2022-12-24T02:51:07.348Z,7.10
2022-12-24T02:53:53.091Z,8.10
2022-12-24T02:56:53.553Z,8.32
2022-12-24T02:59:51.618Z,8.15
2022-12-24T03:02:47.703Z,8.25
2022-12-24T03:05:46.594Z,8.55
2022-12-24T03:08:45.479Z,8.90
2022-12-24T03:11:31.294Z,9.00
2022-12-24T03:14:17.563Z,10.38
2022-12-24T03:17:04.082Z,11.13
2022-12-24T03:19:50.252Z,9.63
2022-12-24T03:22:36.416Z,10.00
2022-12-24T03:25:25.246Z,9.75
2022-12-24T03:28:16.417Z,10.40
2022-12-24T03:31:04.766Z,9.25
2022-12-24T03:33:51.315Z,9.38
2022-12-24T03:36:37.600Z,9.75
2022-12-24T03:39:23.851Z,10.90
2022-12-24T03:42:09.200Z,9.85
2022-12-24T03:44:55.056Z,10.27
2022-12-24T03:47:40.489Z,9.90
2022-12-24T03:50:26.079Z,8.73
2022-12-24T03:53:11.377Z,9.80
2022-12-24T03:55:57.152Z,10.25
2022-12-24T03:58:51.765Z,10.67
2022-12-24T04:01:37.241Z,8.82
2022-12-24T04:04:22.692Z,10.18
2022-12-24T04:07:08.488Z,8.93
2022-12-24T04:09:54.123Z,10.20
2022-12-24T04:12:39.853Z,9.18
2022-12-24T04:15:25.491Z,10.43
2022-12-24T04:18:10.946Z,8.88
2022-12-24T04:20:57.554Z,8.18
2022-12-24T04:23:45.680Z,8.70
2022-12-24T04:26:30.834Z,8.68
2022-12-24T04:29:16.535Z,7.53
2022-12-24T04:32:02.003Z,8.52
2022-12-24T04:34:47.176Z,9.73
2022-12-24T04:37:34.061Z,9.40
2022-12-24T04:40:25.383Z,7.80
2022-12-24T04:43:10.991Z,7.85
2022-12-24T04:45:57.255Z,7.93
2022-12-24T04:48:42.988Z,7.95
2022-12-24T04:51:29.575Z,7.78
2022-12-24T04:54:15.515Z,7.80
2022-12-24T04:57:01.101Z,7.75
2022-12-24T04:59:46.432Z,8.60
2022-12-24T05:02:32.017Z,8.65
2022-12-24T05:05:17.539Z,10.48
2022-12-24T05:08:02.755Z,8.48
2022-12-24T05:11:00.899Z,9.43
2022-12-24T05:13:47.825Z,9.15
2022-12-24T05:16:33.836Z,9.95
2022-12-24T05:19:20.326Z,9.70
2022-12-24T05:22:24.383Z,10.40
2022-12-24T05:25:30.086Z,10.20
2022-12-24T05:28:15.885Z,10.77
2022-12-24T05:31:01.765Z,11.15
2022-12-24T05:33:47.622Z,9.75
2022-12-24T05:36:33.172Z,10.90
2022-12-24T05:39:18.948Z,11.63
2022-12-24T05:42:07.314Z,9.75
2022-12-24T05:44:52.700Z,10.98
2022-12-24T05:47:43.208Z,10.43
2022-12-24T05:50:28.951Z,11.60
2022-12-24T05:53:23.718Z,10.53
2022-12-24T05:56:14.957Z,11.05
2022-12-24T05:59:00.370Z,9.18
2022-12-24T06:01:48.001Z,9.93
2022-12-24T06:04:35.135Z,10.25
2022-12-24T06:07:21.683Z,10.38
2022-12-24T06:10:08.292Z,10.77
2022-12-24T06:12:53.508Z,11.80
2022-12-24T06:15:42.082Z,9.75
2022-12-24T06:18:30.063Z,10.48
2022-12-24T06:21:16.088Z,11.80
2022-12-24T06:24:01.832Z,11.93
2022-12-24T06:26:47.464Z,10.50
2022-12-24T06:29:32.871Z,11.98
2022-12-24T06:32:18.985Z,13.35
2022-12-24T06:35:07.324Z,13.73
2022-12-24T06:37:52.472Z,11.27
2022-12-24T06:40:39.458Z,11.02
2022-12-24T06:43:28.342Z,11.30
2022-12-24T06:46:17.411Z,11.38
2022-12-24T06:49:02.876Z,10.65
2022-12-24T06:51:48.145Z,11.20
2022-12-24T06:54:34.633Z,11.90
2022-12-24T06:57:20.313Z,11.35
2022-12-24T07:00:07.793Z,11.35
2022-12-24T07:02:53.442Z,11.77
2022-12-24T07:05:43.148Z,10.98
2022-12-24T07:08:28.849Z,11.48
2022-12-24T07:11:14.297Z,12.18
2022-12-24T07:13:59.720Z,12.15
2022-12-24T07:16:45.926Z,10.85
2022-12-24T07:19:31.425Z,12.05
2022-12-24T07:22:17.012Z,12.18
2022-12-24T07:25:02.946Z,11.77
2022-12-24T07:27:48.686Z,11.23
2022-12-24T07:30:36.874Z,11.07
2022-12-24T07:33:22.117Z,11.00
2022-12-24T07:36:11.224Z,11.02
2022-12-24T07:38:57.419Z,10.02
2022-12-24T07:41:43.390Z,11.55
2022-12-24T07:44:30.883Z,11.18
2022-12-24T07:47:16.689Z,10.20
2022-12-24T07:50:03.487Z,13.50
2022-12-24T07:52:51.921Z,10.90
2022-12-24T07:55:37.306Z,12.27
2022-12-24T07:58:23.303Z,10.98
2022-12-24T08:01:09.747Z,10.50
2022-12-24T08:03:55.218Z,11.43
2022-12-24T08:06:40.790Z,10.70
2022-12-24T08:09:32.326Z,10.38
2022-12-24T08:12:21.877Z,11.07
2022-12-24T08:15:08.004Z,12.07
2022-12-24T08:17:55.861Z,11.70
2022-12-24T08:20:41.625Z,11.30
2022-12-24T08:23:27.193Z,10.77
2022-12-24T08:26:12.883Z,10.60
2022-12-24T08:28:58.358Z,12.30
2022-12-24T08:31:46.801Z,11.27
2022-12-24T08:34:34.729Z,12.02
2022-12-24T08:37:20.155Z,13.43
2022-12-24T08:40:06.480Z,10.98
2022-12-24T08:42:54.002Z,11.38
2022-12-24T08:45:41.145Z,10.80
2022-12-24T08:48:26.721Z,12.10
2022-12-24T08:51:12.614Z,11.30
2022-12-24T08:53:58.167Z,9.00
2022-12-24T08:56:44.777Z,11.20
2022-12-24T08:59:30.345Z,9.80
2022-12-24T09:02:19.280Z,10.02
2022-12-24T09:05:07.999Z,10.55
2022-12-24T09:07:53.380Z,10.40
2022-12-24T09:10:39.382Z,9.93
2022-12-24T09:13:24.896Z,9.20
2022-12-24T09:16:11.178Z,10.05
2022-12-24T09:18:58.104Z,9.70
2022-12-24T09:21:50.017Z,10.57
2022-12-24T09:24:36.342Z,8.27
2022-12-24T09:27:22.391Z,10.82
2022-12-24T09:30:11.485Z,10.73
2022-12-24T09:32:57.015Z,8.23
2022-12-24T09:35:42.553Z,10.20
2022-12-24T09:38:28.593Z,9.43
2022-12-24T09:41:31.806Z,8.60
2022-12-24T09:45:10.448Z,10.05
2022-12-24T09:48:09.813Z,10.50
2022-12-24T09:51:10.934Z,8.63
2022-12-24T09:54:27.104Z,9.05
2022-12-24T09:57:23.476Z,8.50
2022-12-24T10:00:28.892Z,8.98
2022-12-24T10:03:21.347Z,8.45
2022-12-24T10:06:14.731Z,8.40
2022-12-24T10:09:36.568Z,9.45
2022-12-24T10:13:05.369Z,8.57
2022-12-24T10:16:00.098Z,8.88
2022-12-24T10:18:49.325Z,8.95
2022-12-24T10:21:47.386Z,8.02
2022-12-24T10:24:46.369Z,7.38
2022-12-24T10:27:39.913Z,7.72
2022-12-24T10:30:25.505Z,7.28
2022-12-24T10:33:20.041Z,8.75
2022-12-24T10:36:12.210Z,6.03
2022-12-24T10:38:58.611Z,6.07
2022-12-24T10:41:45.788Z,7.35
2022-12-24T10:44:33.424Z,7.45
2022-12-24T10:47:24.764Z,7.97
2022-12-24T10:50:19.441Z,8.23
2022-12-24T10:53:23.746Z,7.10
2022-12-24T10:56:14.173Z,6.23
2022-12-24T10:58:59.543Z,7.22
2022-12-24T11:01:47.880Z,7.60
2022-12-24T11:04:45.666Z,8.75
2022-12-24T11:07:33.011Z,8.30
2022-12-24T11:10:24.224Z,7.50
2022-12-24T11:13:39.908Z,7.68
2022-12-24T11:16:32.642Z,7.55
2022-12-24T11:19:24.262Z,8.85
2022-12-24T11:22:31.239Z,8.60
2022-12-24T11:25:22.108Z,7.72
2022-12-24T11:28:18.416Z,6.70
2022-12-24T11:31:07.188Z,9.00
2022-12-24T11:33:56.002Z,6.95
2022-12-24T11:36:41.662Z,8.18
2022-12-24T11:39:28.100Z,8.55
2022-12-24T11:42:35.502Z,7.93
2022-12-24T11:45:27.622Z,7.35
2022-12-24T11:48:29.322Z,8.20
2022-12-24T11:51:27.580Z,6.30
2022-12-24T11:54:26.663Z,7.03
2022-12-24T11:57:18.900Z,5.78
2022-12-24T12:00:05.354Z,7.72
2022-12-24T12:02:52.029Z,7.18
2022-12-24T12:05:39.702Z,7.93
2022-12-24T12:08:28.003Z,7.25
2022-12-24T12:11:14.563Z,7.32
2022-12-24T12:14:05.672Z,7.05
2022-12-24T12:17:24.415Z,6.40
2022-12-24T12:20:13.082Z,7.13
2022-12-24T12:23:19.881Z,6.72
2022-12-24T12:26:15.054Z,6.07
2022-12-24T12:29:20.535Z,5.85
2022-12-24T12:32:28.537Z,6.28
2022-12-24T12:35:35.454Z,7.03
2022-12-24T12:38:30.955Z,6.43
2022-12-24T12:44:28.480Z,5.97
2022-12-24T12:47:27.512Z,6.63
2022-12-24T12:50:23.816Z,6.22
2022-12-24T12:53:23.926Z,6.55
2022-12-24T12:56:28.140Z,6.63
2022-12-24T12:59:35.656Z,7.43
2022-12-24T13:02:38.090Z,6.45
2022-12-24T13:05:57.948Z,6.78
2022-12-24T13:09:08.536Z,5.95
2022-12-24T13:11:59.725Z,6.00
2022-12-24T13:15:17.344Z,5.82
2022-12-24T13:18:27.503Z,6.78
2022-12-24T13:21:22.909Z,5.63
2022-12-24T13:24:20.051Z,6.50
2022-12-24T13:27:26.706Z,7.28
2022-12-24T13:30:36.223Z,6.63
2022-12-24T13:33:48.158Z,5.88
2022-12-24T13:37:06.135Z,6.82
2022-12-24T13:40:06.759Z,5.63
2022-12-24T13:43:08.134Z,6.57
2022-12-24T13:45:53.819Z,6.95
2022-12-24T13:48:39.334Z,6.90
2022-12-24T13:51:26.345Z,6.75
2022-12-24T13:54:13.896Z,7.35
2022-12-24T13:57:00.619Z,7.90
2022-12-24T13:59:47.282Z,8.00
2022-12-24T14:02:39.212Z,7.55
2022-12-24T14:05:39.831Z,6.97
2022-12-24T14:08:25.524Z,6.80
2022-12-24T14:11:18.438Z,7.18
2022-12-24T14:14:03.817Z,7.72
2022-12-24T14:16:51.586Z,6.75
2022-12-24T14:19:46.852Z,7.68
2022-12-24T14:25:24.237Z,7.95
2022-12-24T14:28:22.003Z,7.90
2022-12-24T14:31:18.122Z,7.63
2022-12-24T14:34:13.847Z,7.18
2022-12-24T14:37:03.521Z,7.15
2022-12-24T14:39:56.772Z,8.30
2022-12-24T14:43:19.219Z,8.07
2022-12-24T14:46:40.396Z,8.43
2022-12-24T14:50:25.369Z,7.72
2022-12-24T14:53:39.637Z,7.90
2022-12-24T14:56:25.709Z,8.20
2022-12-24T14:59:20.680Z,7.88
2022-12-24T15:05:30.112Z,8.48
2022-12-24T15:08:19.510Z,9.85
2022-12-24T15:11:08.921Z,8.23
2022-12-24T15:13:57.344Z,8.13
2022-12-24T15:16:54.747Z,9.18
2022-12-24T15:19:43.508Z,8.63
2022-12-24T15:22:32.133Z,8.85
2022-12-24T15:25:31.959Z,9.30
2022-12-24T15:28:23.396Z,8.32
2022-12-24T15:31:13.513Z,8.50
2022-12-24T15:33:59.628Z,8.38
2022-12-24T15:36:45.393Z,11.48
2022-12-24T15:39:31.070Z,10.48
2022-12-24T15:42:19.623Z,9.60
2022-12-24T15:45:13.604Z,9.80
2022-12-24T15:48:10.163Z,9.85
2022-12-24T15:51:02.608Z,10.38
2022-12-24T15:53:56.943Z,11.63
2022-12-24T15:56:50.548Z,10.55
2022-12-24T15:59:36.562Z,12.68
2022-12-24T16:02:38.334Z,12.05
2022-12-24T16:05:38.752Z,9.63
2022-12-24T16:08:25.659Z,11.20
2022-12-24T16:11:19.054Z,12.38
2022-12-24T16:14:23.130Z,13.15
2022-12-24T16:17:32.220Z,13.02
2022-12-24T16:20:21.802Z,13.60
2022-12-24T16:23:20.359Z,15.48
2022-12-24T16:26:06.078Z,13.80
2022-12-24T16:28:51.287Z,15.10
2022-12-24T16:31:43.477Z,17.95
2022-12-24T16:34:34.528Z,19.50
2022-12-24T16:37:19.950Z,18.58
2022-12-24T16:40:08.360Z,17.83
2022-12-24T16:43:16.028Z,14.20
2022-12-24T16:46:07.886Z,14.90
2022-12-24T16:48:53.472Z,13.40
2022-12-24T16:51:39.065Z,13.65
2022-12-24T16:54:24.572Z,13.85
2022-12-24T16:57:13.254Z,14.73
2022-12-24T16:59:58.872Z,16.52
2022-12-24T17:02:45.057Z,19.35
2022-12-24T17:05:30.769Z,18.95
2022-12-24T17:08:17.390Z,19.95
2022-12-24T17:11:02.884Z,19.27
2022-12-24T17:13:48.283Z,18.30
2022-12-24T17:16:34.074Z,17.02
2022-12-24T17:19:19.475Z,18.90
2022-12-24T17:22:05.067Z,19.67
2022-12-24T17:24:50.679Z,18.48
2022-12-24T17:27:36.506Z,20.40
2022-12-24T17:30:22.353Z,23.20
2022-12-24T17:33:14.153Z,22.90
2022-12-24T17:36:00.733Z,19.65
2022-12-24T17:38:49.592Z,20.20
2022-12-24T17:41:37.961Z,21.13
2022-12-24T17:44:23.634Z,21.30
2022-12-24T17:47:09.203Z,23.50
2022-12-24T17:49:54.855Z,22.55
2022-12-24T17:52:40.377Z,20.95
2022-12-24T17:55:25.841Z,18.75
2022-12-24T17:58:12.047Z,21.75
2022-12-24T18:01:01.328Z,24.10
2022-12-24T18:03:48.593Z,22.52
2022-12-24T18:06:37.236Z,21.98
2022-12-24T18:09:22.723Z,20.77
2022-12-24T18:12:07.971Z,20.95
2022-12-24T18:14:54.515Z,23.33
2022-12-24T18:17:42.648Z,21.95
2022-12-24T18:20:31.229Z,22.45
2022-12-24T18:23:16.401Z,24.60
2022-12-24T18:26:05.864Z,24.08
2022-12-24T18:28:53.836Z,25.08
2022-12-24T18:31:39.204Z,25.40
2022-12-24T18:34:24.565Z,26.38
2022-12-24T18:37:10.495Z,25.88
2022-12-24T18:39:57.788Z,25.65
2022-12-24T18:42:43.654Z,25.92
2022-12-24T18:45:31.487Z,26.27
2022-12-24T18:48:18.121Z,28.17
2022-12-24T18:51:06.704Z,27.25
2022-12-24T18:53:52.175Z,26.25
2022-12-24T18:56:37.498Z,26.30
2022-12-24T18:59:22.804Z,25.88
2022-12-24T19:02:10.283Z,26.77
2022-12-24T19:04:55.757Z,27.20
2022-12-24T19:07:41.744Z,26.15
2022-12-24T19:10:27.352Z,27.02
2022-12-24T19:13:12.848Z,29.67
2022-12-24T19:15:58.415Z,26.98
2022-12-24T19:18:43.961Z,27.50
2022-12-24T19:21:29.778Z,26.98
2022-12-24T19:24:15.414Z,26.23
2022-12-24T19:27:04.886Z,27.33
2022-12-24T19:29:50.369Z,25.95
2022-12-24T19:32:39.181Z,26.55
2022-12-24T19:35:24.393Z,26.08
2022-12-24T19:38:10.842Z,25.55
2022-12-24T19:40:56.275Z,27.13
2022-12-24T19:43:47.550Z,27.23
2022-12-24T19:46:34.820Z,27.20
2022-12-24T19:49:20.664Z,29.25
2022-12-24T19:52:08.848Z,28.15
2022-12-24T19:54:54.386Z,27.50
2022-12-24T19:57:39.858Z,29.77
2022-12-24T20:00:25.037Z,28.40
2022-12-24T20:03:10.720Z,28.33
2022-12-24T20:05:56.214Z,27.75
2022-12-24T20:08:42.462Z,27.33
2022-12-24T20:11:28.892Z,27.35
2022-12-24T20:14:14.408Z,29.13
2022-12-24T20:17:00.203Z,28.27
2022-12-24T20:19:45.893Z,27.65
2022-12-24T20:22:31.276Z,28.45
2022-12-24T20:25:16.895Z,29.40
2022-12-24T20:28:02.701Z,29.60
2022-12-24T20:30:51.003Z,31.08
2022-12-24T20:33:36.405Z,29.50
2022-12-24T20:36:22.952Z,29.55
2022-12-24T20:39:08.571Z,28.38
2022-12-24T20:41:54.198Z,29.08
2022-12-24T20:44:39.923Z,30.05
2022-12-24T20:47:25.471Z,29.45
2022-12-24T20:50:11.245Z,30.70
2022-12-24T20:52:56.558Z,29.83
2022-12-24T20:55:44.032Z,28.75
2022-12-24T20:58:29.519Z,30.05
2022-12-24T21:01:24.326Z,29.10
2022-12-24T21:04:11.953Z,28.45
2022-12-24T21:06:57.408Z,29.98
2022-12-24T21:09:43.111Z,32.63
2022-12-24T21:12:48.519Z,28.52
2022-12-24T21:15:37.633Z,29.60
2022-12-24T21:18:22.921Z,27.52
2022-12-24T21:21:08.780Z,30.40
2022-12-24T21:23:55.259Z,29.83
2022-12-24T21:26:40.769Z,28.05
2022-12-24T21:29:27.284Z,29.70
2022-12-24T21:32:15.580Z,32.10
2022-12-24T21:35:03.053Z,29.38
2022-12-24T21:37:48.550Z,31.48
2022-12-24T21:40:34.746Z,27.83
2022-12-24T21:43:20.076Z,28.38
2022-12-24T21:46:13.507Z,28.92
2022-12-24T21:49:17.651Z,28.63
2022-12-24T21:52:03.616Z,27.77
2022-12-24T21:54:50.274Z,27.27
2022-12-24T21:57:54.340Z,29.50
2022-12-24T22:00:39.983Z,29.40
2022-12-24T22:03:28.359Z,27.17
2022-12-24T22:06:33.751Z,29.45
2022-12-24T22:09:38.368Z,28.40
2022-12-24T22:12:24.630Z,30.40
2022-12-24T22:15:10.529Z,28.70
2022-12-24T22:17:56.178Z,27.92
2022-12-24T22:20:43.185Z,27.13
2022-12-24T22:23:28.783Z,25.35
2022-12-24T22:26:16.942Z,26.08
2022-12-24T22:29:07.848Z,25.92
2022-12-24T22:31:53.051Z,26.08
2022-12-24T22:34:39.063Z,28.27
2022-12-24T22:37:24.615Z,28.67
2022-12-24T22:40:10.942Z,27.17
2022-12-24T22:42:58.577Z,26.80
2022-12-24T22:45:44.395Z,26.33
2022-12-24T22:48:29.855Z,26.42
2022-12-24T22:51:20.388Z,27.80
2022-12-24T22:54:08.470Z,26.15
2022-12-24T22:56:54.094Z,26.08
2022-12-24T22:59:42.083Z,27.30
2022-12-24T23:02:29.177Z,27.25
2022-12-24T23:05:15.807Z,29.63
2022-12-24T23:08:01.247Z,29.25
2022-12-24T23:10:46.346Z,28.88
2022-12-24T23:13:56.100Z,25.80
2022-12-24T23:16:42.313Z,26.67
2022-12-24T23:19:27.808Z,25.42
2022-12-24T23:22:13.381Z,25.80
2022-12-24T23:24:58.841Z,25.88
2022-12-24T23:27:44.013Z,25.70
2022-12-24T23:30:33.226Z,25.60
2022-12-24T23:33:18.688Z,26.13
2022-12-24T23:36:06.153Z,25.42
2022-12-24T23:38:53.624Z,24.00
2022-12-24T23:41:39.105Z,28.15
2022-12-24T23:44:31.726Z,24.52
2022-12-24T23:47:18.761Z,25.30
2022-12-24T23:50:05.325Z,26.38
2022-12-24T23:52:53.026Z,26.30
2022-12-24T23:55:41.542Z,26.20
2022-12-24T23:58:27.224Z,25.83
